createdAt,value
2019-04-26T00:01:16.651Z,77.00
2019-04-26T00:03:47.085Z,76.80
2019-04-26T00:06:16.703Z,77.10
2019-04-26T00:08:50.334Z,77.30
2019-04-26T00:11:34.257Z,77.40
2019-04-26T00:14:31.504Z,77.60
2019-04-26T00:17:11.474Z,77.60
2019-04-26T00:19:40.945Z,77.60
2019-04-26T00:22:10.724Z,78.00
2019-04-26T00:24:41.096Z,78.10
2019-04-26T00:27:11.289Z,78.30
2019-04-26T00:29:40.554Z,78.40
2019-04-26T00:32:10.678Z,78.60
2019-04-26T00:34:40.664Z,78.80
2019-04-26T00:37:09.849Z,78.70
2019-04-26T00:39:39.013Z,78.60
2019-04-26T00:42:08.122Z,78.50
2019-04-26T00:44:37.315Z,78.60
2019-04-26T00:47:06.502Z,78.50
2019-04-26T00:49:43.634Z,78.90
2019-04-26T00:52:06.538Z,79.50
2019-04-26T00:54:35.779Z,79.60
2019-04-26T00:57:05.025Z,79.60
2019-04-26T00:59:34.254Z,79.70
2019-04-26T01:02:21.413Z,79.70
2019-04-26T01:04:50.598Z,80.00
2019-04-26T01:07:21.081Z,79.90
2019-04-26T01:09:50.527Z,80.00
2019-04-26T01:12:19.792Z,80.20
2019-04-26T01:14:48.968Z,80.30
2019-04-26T01:17:18.677Z,80.00
2019-04-26T01:19:48.069Z,80.10
2019-04-26T01:22:21.838Z,79.90
2019-04-26T01:24:51.014Z,79.60
2019-04-26T01:27:21.267Z,79.50
2019-04-26T01:29:51.233Z,79.50
2019-04-26T01:32:20.359Z,79.40
2019-04-26T01:34:49.711Z,79.40
2019-04-26T01:37:19.253Z,79.20
2019-04-26T01:39:53.161Z,79.40
2019-04-26T01:42:38.621Z,79.20
2019-04-26T01:45:14.310Z,79.20
2019-04-26T01:47:43.481Z,79.20
2019-04-26T01:50:12.657Z,79.20
2019-04-26T01:52:41.974Z,78.90
2019-04-26T01:55:11.167Z,80.40
2019-04-26T01:57:40.400Z,80.40
2019-04-26T02:00:28.302Z,80.70
2019-04-26T02:03:00.598Z,80.40
2019-04-26T02:05:29.941Z,80.50
2019-04-26T02:07:59.090Z,80.70
2019-04-26T02:10:29.251Z,80.80
2019-04-26T02:12:58.417Z,80.50
2019-04-26T02:15:33.342Z,80.20
2019-04-26T02:18:02.875Z,80.20
2019-04-26T02:21:39.953Z,80.00
2019-04-26T02:24:42.846Z,80.20
2019-04-26T02:27:32.395Z,79.60
2019-04-26T02:30:02.041Z,80.20
2019-04-26T02:32:32.751Z,80.30
2019-04-26T02:35:02.042Z,80.40
2019-04-26T02:37:32.885Z,80.70
2019-04-26T02:40:02.068Z,80.50
2019-04-26T02:42:41.529Z,80.50
2019-04-26T02:46:06.348Z,80.20
2019-04-26T02:49:17.654Z,79.60
2019-04-26T02:51:57.752Z,80.20
2019-04-26T02:54:45.483Z,80.30
2019-04-26T02:57:40.401Z,80.50
2019-04-26T03:00:11.054Z,79.90
2019-04-26T03:02:40.522Z,80.40
2019-04-26T03:05:09.976Z,80.50
2019-04-26T03:08:05.887Z,80.40
2019-04-26T03:10:38.157Z,80.40
2019-04-26T03:13:09.832Z,80.70
2019-04-26T03:16:03.095Z,80.70
2019-04-26T03:19:07.082Z,81.00
2019-04-26T03:22:05.883Z,81.30
2019-04-26T03:24:59.175Z,81.80
2019-04-26T03:27:44.359Z,82.00
2019-04-26T03:30:24.813Z,82.20
2019-04-26T03:33:30.233Z,82.30
2019-04-26T03:36:28.123Z,82.30
2019-04-26T03:39:26.750Z,82.30
2019-04-26T03:42:16.416Z,83.00
2019-04-26T03:44:54.086Z,82.20
2019-04-26T03:47:26.118Z,82.20
2019-04-26T03:50:20.321Z,82.90
2019-04-26T03:53:23.395Z,82.10
2019-04-26T03:56:20.381Z,82.30
2019-04-26T03:59:25.437Z,82.70
2019-04-26T04:02:26.124Z,82.80
2019-04-26T04:05:07.523Z,83.10
2019-04-26T04:07:43.949Z,83.10
2019-04-26T04:10:13.462Z,83.00
2019-04-26T04:13:04.932Z,82.90
2019-04-26T04:15:53.518Z,82.70
2019-04-26T04:18:25.163Z,82.10
2019-04-26T04:21:21.689Z,82.30
2019-04-26T04:23:58.938Z,82.10
2019-04-26T04:26:54.345Z,82.10
2019-04-26T04:29:54.653Z,81.80
2019-04-26T04:32:52.154Z,81.80
2019-04-26T04:35:22.425Z,81.80
2019-04-26T04:38:08.452Z,82.10
2019-04-26T04:41:11.093Z,82.20
2019-04-26T04:43:50.902Z,81.50
2019-04-26T04:47:24.222Z,82.30
2019-04-26T04:50:34.405Z,81.70
2019-04-26T04:53:27.579Z,82.00
2019-04-26T04:56:25.518Z,82.00
2019-04-26T04:58:55.262Z,81.70
2019-04-26T05:02:20.085Z,81.90
2019-04-26T05:05:15.838Z,81.90
2019-04-26T05:08:07.348Z,82.20
2019-04-26T05:10:54.134Z,82.10
2019-04-26T05:13:29.881Z,82.20
2019-04-26T05:16:25.068Z,82.40
2019-04-26T05:19:28.881Z,82.40
2019-04-26T05:22:18.196Z,82.40
2019-04-26T05:25:17.670Z,81.90
2019-04-26T05:28:08.026Z,82.20
2019-04-26T05:31:11.693Z,80.60
2019-04-26T05:34:16.476Z,80.50
2019-04-26T05:37:23.658Z,80.50
2019-04-26T05:40:08.562Z,80.00
2019-04-26T05:43:37.293Z,81.00
2019-04-26T05:46:40.986Z,80.50
2019-04-26T05:49:55.868Z,80.80
2019-04-26T05:52:55.211Z,80.60
2019-04-26T05:56:03.431Z,79.80
2019-04-26T05:58:44.454Z,79.80
2019-04-26T06:02:03.230Z,79.40
2019-04-26T06:05:02.897Z,79.50
2019-04-26T06:08:11.667Z,79.50
2019-04-26T06:10:46.795Z,79.20
2019-04-26T06:13:37.586Z,79.10
2019-04-26T06:16:46.967Z,78.70
2019-04-26T06:19:23.770Z,79.00
2019-04-26T06:22:05.585Z,78.80
2019-04-26T06:25:08.510Z,78.40
2019-04-26T06:27:58.434Z,78.30
2019-04-26T06:30:45.245Z,77.60
2019-04-26T06:33:35.378Z,77.50
2019-04-26T06:36:08.086Z,77.60
2019-04-26T06:39:16.578Z,77.30
2019-04-26T06:42:25.038Z,77.30
2019-04-26T06:45:35.362Z,77.20
2019-04-26T06:48:14.238Z,76.90
2019-04-26T06:50:50.894Z,75.90
2019-04-26T06:53:43.530Z,75.00
2019-04-26T06:56:39.666Z,75.50
2019-04-26T06:59:43.442Z,74.60
2019-04-26T07:02:18.740Z,74.60
2019-04-26T07:05:20.798Z,73.90
2019-04-26T07:08:17.482Z,73.80
2019-04-26T07:11:26.238Z,73.80
2019-04-26T07:14:22.225Z,73.70
2019-04-26T07:16:54.988Z,73.60
2019-04-26T07:20:05.924Z,73.10
2019-04-26T07:22:57.750Z,72.60
2019-04-26T07:26:04.389Z,71.60
2019-04-26T07:28:52.902Z,70.40
2019-04-26T07:31:43.128Z,69.30
2019-04-26T07:35:02.782Z,69.10
2019-04-26T07:38:15.447Z,68.20
2019-04-26T07:41:26.994Z,67.20
2019-04-26T07:44:21.781Z,65.60
2019-04-26T07:47:30.945Z,65.00
2019-04-26T07:50:39.271Z,63.40
2019-04-26T07:53:40.663Z,63.10
2019-04-26T07:56:36.434Z,63.30
2019-04-26T08:00:09.126Z,63.00
2019-04-26T08:02:57.971Z,62.60
2019-04-26T08:05:40.310Z,61.60
2019-04-26T08:08:10.727Z,60.90
2019-04-26T08:10:40.283Z,60.70
2019-04-26T08:13:13.021Z,59.50
2019-04-26T08:15:50.219Z,59.00
2019-04-26T08:18:24.302Z,58.90
2019-04-26T08:20:55.341Z,58.40
2019-04-26T08:23:39.573Z,58.50
2019-04-26T08:26:00.935Z,57.70
2019-04-26T08:28:30.770Z,58.10
2019-04-26T08:31:00.370Z,57.40
2019-04-26T08:33:40.436Z,56.10
2019-04-26T08:36:08.755Z,55.70
2019-04-26T08:38:38.073Z,54.80
2019-04-26T08:41:08.160Z,52.90
2019-04-26T08:44:07.205Z,52.50
2019-04-26T08:46:49.049Z,52.00
2019-04-26T08:49:40.303Z,51.00
2019-04-26T08:52:14.695Z,50.60
2019-04-26T08:54:44.974Z,49.10
2019-04-26T08:57:14.470Z,47.30
2019-04-26T08:59:46.486Z,47.90
2019-04-26T09:02:35.141Z,47.90
2019-04-26T09:05:14.301Z,47.10
2019-04-26T09:07:46.062Z,46.20
2019-04-26T09:10:16.108Z,46.90
2019-04-26T09:12:45.466Z,45.30
2019-04-26T09:15:15.042Z,44.80
2019-04-26T09:17:44.214Z,43.50
2019-04-26T09:20:13.404Z,43.10
2019-04-26T09:23:03.748Z,42.70
2019-04-26T09:25:58.694Z,43.10
2019-04-26T09:28:35.730Z,42.50
2019-04-26T09:31:19.577Z,41.90
2019-04-26T09:33:52.171Z,41.90
2019-04-26T09:36:21.345Z,41.80
2019-04-26T09:38:50.548Z,40.70
2019-04-26T09:41:19.820Z,41.20
2019-04-26T09:43:54.982Z,40.00
2019-04-26T09:46:38.638Z,37.90
2019-04-26T09:49:16.473Z,36.90
2019-04-26T09:51:45.649Z,37.40
2019-04-26T09:54:15.535Z,38.30
2019-04-26T09:56:44.805Z,37.80
2019-04-26T09:59:13.993Z,37.40
2019-04-26T10:01:43.278Z,35.70
2019-04-26T10:04:12.396Z,35.50
2019-04-26T10:06:41.567Z,35.00
2019-04-26T10:09:17.250Z,35.50
2019-04-26T10:11:50.921Z,34.00
2019-04-26T10:14:28.165Z,32.80
2019-04-26T10:17:05.263Z,32.90
2019-04-26T10:19:46.451Z,33.10
2019-04-26T10:22:15.621Z,33.00
2019-04-26T10:24:44.802Z,33.00
2019-04-26T10:27:14.186Z,32.50
2019-04-26T10:29:43.350Z,32.70
2019-04-26T10:32:12.575Z,32.20
2019-04-26T10:34:42.635Z,31.40
2019-04-26T10:37:12.926Z,31.30
2019-04-26T10:39:42.130Z,32.10
2019-04-26T10:42:11.315Z,31.80
2019-04-26T10:44:41.134Z,32.80
2019-04-26T10:47:10.373Z,32.70
2019-04-26T10:49:40.675Z,32.60
2019-04-26T10:52:15.576Z,32.00
2019-04-26T10:54:46.001Z,32.50
2019-04-26T10:57:18.698Z,32.60
2019-04-26T10:59:58.742Z,32.80
2019-04-26T11:02:27.846Z,32.90
2019-04-26T11:04:57.046Z,32.90
2019-04-26T11:07:26.230Z,32.70
2019-04-26T11:09:55.413Z,33.30
2019-04-26T11:12:24.593Z,33.50
2019-04-26T11:14:56.934Z,32.60
2019-04-26T11:17:24.909Z,33.10
2019-04-26T11:19:54.144Z,33.40
2019-04-26T11:22:29.186Z,33.70
2019-04-26T11:24:55.050Z,34.00
2019-04-26T11:27:24.393Z,34.10
2019-04-26T11:29:54.196Z,34.80
2019-04-26T11:32:23.602Z,34.70
2019-04-26T11:34:54.463Z,37.90
2019-04-26T11:37:23.635Z,40.00
2019-04-26T11:39:52.738Z,39.80
2019-04-26T11:42:21.909Z,39.20
2019-04-26T11:44:51.023Z,39.50
2019-04-26T11:47:20.226Z,39.90
2019-04-26T11:49:50.109Z,39.90
2019-04-26T11:52:19.726Z,39.70
2019-04-26T11:54:51.264Z,40.30
2019-04-26T11:57:20.017Z,40.20
2019-04-26T11:59:49.202Z,40.20
2019-04-26T12:02:18.602Z,40.70
2019-04-26T12:05:04.830Z,41.10
2019-04-26T12:07:40.846Z,40.30
2019-04-26T12:10:11.455Z,41.00
2019-04-26T12:12:43.161Z,40.90
2019-04-26T12:15:11.425Z,40.80
2019-04-26T12:17:40.584Z,40.60
2019-04-26T12:20:09.770Z,40.70
2019-04-26T12:22:39.342Z,40.30
2019-04-26T12:25:09.751Z,40.30
2019-04-26T12:27:39.018Z,39.90
2019-04-26T12:30:08.306Z,40.10
2019-04-26T12:32:37.474Z,40.70
2019-04-26T12:35:06.594Z,40.50
2019-04-26T12:37:35.777Z,40.10
2019-04-26T12:40:07.300Z,40.20
2019-04-26T12:42:36.962Z,39.60
2019-04-26T12:45:23.752Z,39.60
2019-04-26T12:47:55.477Z,39.10
2019-04-26T12:50:24.654Z,39.40
2019-04-26T12:52:55.872Z,39.40
2019-04-26T12:55:25.317Z,39.20
2019-04-26T12:57:54.953Z,39.70
2019-04-26T13:00:33.194Z,38.60
2019-04-26T13:03:02.066Z,40.10
2019-04-26T13:05:32.986Z,39.80
2019-04-26T13:08:02.104Z,39.70
2019-04-26T13:10:44.902Z,39.10
2019-04-26T13:13:21.724Z,40.30
2019-04-26T13:16:15.838Z,40.10
2019-04-26T13:18:47.472Z,40.10
2019-04-26T13:21:16.915Z,39.40
2019-04-26T13:23:48.207Z,39.40
2019-04-26T13:26:17.061Z,39.70
2019-04-26T13:28:46.270Z,39.70
2019-04-26T13:31:15.448Z,39.60
2019-04-26T13:33:47.417Z,39.20
2019-04-26T13:36:16.595Z,40.30
2019-04-26T13:38:45.768Z,39.80
2019-04-26T13:41:14.959Z,40.60
2019-04-26T13:43:44.793Z,40.90
2019-04-26T13:46:31.553Z,41.30
2019-04-26T13:49:22.617Z,41.90
2019-04-26T13:51:51.802Z,41.50
2019-04-26T13:54:22.704Z,42.10
2019-04-26T13:56:52.023Z,42.10
2019-04-26T13:59:21.282Z,42.60
2019-04-26T14:01:50.458Z,43.20
2019-04-26T14:04:19.799Z,43.50
2019-04-26T14:06:49.790Z,43.50
2019-04-26T14:09:19.165Z,43.90
2019-04-26T14:11:49.352Z,43.70
2019-04-26T14:14:18.674Z,44.00
2019-04-26T14:16:47.908Z,43.80
2019-04-26T14:19:17.122Z,43.00
2019-04-26T14:21:46.510Z,43.20
2019-04-26T14:24:39.338Z,43.50
2019-04-26T14:27:15.061Z,43.70
2019-04-26T14:29:43.220Z,43.20
2019-04-26T14:32:12.394Z,43.60
2019-04-26T14:34:41.983Z,43.80
2019-04-26T14:37:15.561Z,43.90
2019-04-26T14:39:50.315Z,44.40
2019-04-26T14:42:13.303Z,45.10
2019-04-26T14:44:49.325Z,45.00
2019-04-26T14:47:17.476Z,44.50
2019-04-26T14:49:44.316Z,44.80
2019-04-26T14:52:13.886Z,45.70
2019-04-26T14:54:45.922Z,46.00
2019-04-26T14:57:19.918Z,45.30
2019-04-26T15:00:09.690Z,46.10
2019-04-26T15:03:09.693Z,46.20
2019-04-26T15:05:56.809Z,46.30
2019-04-26T15:08:25.925Z,46.30
2019-04-26T15:11:01.020Z,46.60
2019-04-26T15:13:25.962Z,46.80
2019-04-26T15:15:55.246Z,46.70
2019-04-26T15:18:24.434Z,46.90
2019-04-26T15:20:57.086Z,47.30
2019-04-26T15:23:26.529Z,47.60
2019-04-26T15:25:55.303Z,47.80
2019-04-26T15:28:24.537Z,48.20
2019-04-26T15:30:53.705Z,48.70
2019-04-26T15:33:22.814Z,48.80
2019-04-26T15:35:52.244Z,48.40
2019-04-26T15:38:22.562Z,47.50
2019-04-26T15:41:14.671Z,47.00
2019-04-26T15:44:00.653Z,46.50
2019-04-26T15:46:48.429Z,46.20
2019-04-26T15:49:36.676Z,45.80
2019-04-26T15:52:05.277Z,45.70
2019-04-26T15:54:34.452Z,45.30
2019-04-26T15:57:06.326Z,45.30
2019-04-26T15:59:34.480Z,45.40
2019-04-26T16:02:03.814Z,45.70
2019-04-26T16:04:33.001Z,45.90
2019-04-26T16:07:02.564Z,45.90
2019-04-26T16:09:32.464Z,46.00
2019-04-26T16:12:03.581Z,45.70
2019-04-26T16:14:36.446Z,46.10
2019-04-26T16:17:06.558Z,46.30
2019-04-26T16:19:34.437Z,46.90
2019-04-26T16:22:03.613Z,47.00
2019-04-26T16:24:34.450Z,47.00
2019-04-26T16:27:03.803Z,47.10
2019-04-26T16:29:46.670Z,47.50
2019-04-26T16:32:34.606Z,47.60
2019-04-26T16:35:12.673Z,47.90
2019-04-26T16:37:43.681Z,47.80
2019-04-26T16:40:13.873Z,47.70
2019-04-26T16:42:43.202Z,47.90
2019-04-26T16:45:12.477Z,48.50
2019-04-26T16:47:47.333Z,48.60
2019-04-26T16:50:14.841Z,48.80
2019-04-26T16:52:47.748Z,48.90
2019-04-26T16:55:20.810Z,49.20
2019-04-26T16:57:54.763Z,49.50
2019-04-26T17:00:18.371Z,49.30
2019-04-26T17:02:47.533Z,49.70
2019-04-26T17:05:21.067Z,49.80
2019-04-26T17:07:47.618Z,49.70
2019-04-26T17:10:20.897Z,49.80
2019-04-26T17:12:50.678Z,50.60
2019-04-26T17:15:21.053Z,49.90
2019-04-26T17:17:50.542Z,50.00
2019-04-26T17:20:20.678Z,50.00
2019-04-26T17:23:07.382Z,50.10
2019-04-26T17:26:10.862Z,50.20
2019-04-26T17:28:42.956Z,50.20
2019-04-26T17:31:12.491Z,50.80
2019-04-26T17:33:42.109Z,51.00
2019-04-26T17:36:15.166Z,51.20
2019-04-26T17:38:42.147Z,51.80
2019-04-26T17:41:13.582Z,52.00
2019-04-26T17:43:46.891Z,52.00
2019-04-26T17:46:14.534Z,52.00
2019-04-26T17:48:44.788Z,51.80
2019-04-26T17:51:18.847Z,51.20
2019-04-26T17:53:48.171Z,51.30
2019-04-26T17:56:16.680Z,51.50
2019-04-26T17:58:52.304Z,51.50
2019-04-26T18:01:39.933Z,51.90
2019-04-26T18:03:52.268Z,52.10
2019-04-26T18:06:29.036Z,51.90
2019-04-26T18:08:54.617Z,52.10
2019-04-26T18:11:24.713Z,51.90
2019-04-26T18:13:52.317Z,51.80
2019-04-26T18:16:25.061Z,52.00
2019-04-26T18:19:12.894Z,52.10
2019-04-26T18:21:59.639Z,52.80
2019-04-26T18:24:27.568Z,53.20
2019-04-26T18:26:59.021Z,53.80
2019-04-26T18:29:29.413Z,53.80
2019-04-26T18:31:59.191Z,53.70
2019-04-26T18:34:30.552Z,53.70
2019-04-26T18:37:01.957Z,54.20
2019-04-26T18:39:30.889Z,54.20
2019-04-26T18:42:02.931Z,53.70
2019-04-26T18:44:36.996Z,54.20
2019-04-26T18:47:20.397Z,54.10
2019-04-26T18:49:47.371Z,54.00
2019-04-26T18:52:19.371Z,54.00
2019-04-26T18:55:13.013Z,54.00
2019-04-26T18:57:43.113Z,53.90
2019-04-26T19:00:25.315Z,54.70
2019-04-26T19:02:54.338Z,55.10
2019-04-26T19:05:27.023Z,55.20
2019-04-26T19:07:53.978Z,54.80
2019-04-26T19:10:25.675Z,55.90
2019-04-26T19:12:56.374Z,55.80
2019-04-26T19:15:56.819Z,55.80
2019-04-26T19:18:45.046Z,55.90
2019-04-26T19:21:24.409Z,56.60
2019-04-26T19:24:04.901Z,57.00
2019-04-26T19:26:32.348Z,57.00
2019-04-26T19:28:55.262Z,56.90
2019-04-26T19:31:27.142Z,57.00
2019-04-26T19:33:56.094Z,56.90
2019-04-26T19:36:27.842Z,57.20
2019-04-26T19:38:56.299Z,57.40
2019-04-26T19:41:27.243Z,58.20
2019-04-26T19:43:56.312Z,58.00
2019-04-26T19:46:44.554Z,58.40
2019-04-26T19:49:33.394Z,59.00
2019-04-26T19:52:33.624Z,59.10
2019-04-26T19:55:13.952Z,59.10
2019-04-26T19:58:01.957Z,59.40
2019-04-26T20:00:32.219Z,59.50
2019-04-26T20:03:01.721Z,59.50
2019-04-26T20:05:31.936Z,60.00
2019-04-26T20:08:02.904Z,60.40
2019-04-26T20:10:34.581Z,61.20
2019-04-26T20:13:03.128Z,61.60
2019-04-26T20:15:32.385Z,62.40
2019-04-26T20:18:03.870Z,63.40
2019-04-26T20:20:36.113Z,64.40
2019-04-26T20:23:05.787Z,64.00
2019-04-26T20:25:34.046Z,65.50
2019-04-26T20:28:03.269Z,66.60
2019-04-26T20:30:42.226Z,67.10
2019-04-26T20:33:12.115Z,68.70
2019-04-26T20:35:42.430Z,68.80
2019-04-26T20:38:11.969Z,70.10
2019-04-26T20:40:43.511Z,69.60
2019-04-26T20:43:23.297Z,71.30
2019-04-26T20:46:08.016Z,72.00
2019-04-26T20:48:13.682Z,71.40
2019-04-26T20:50:42.868Z,73.60
2019-04-26T20:53:12.151Z,73.70
2019-04-26T20:55:42.726Z,72.70
2019-04-26T20:58:12.007Z,72.00
2019-04-26T21:00:53.504Z,73.00
2019-04-26T21:03:23.032Z,74.00
2019-04-26T21:05:46.183Z,74.50
2019-04-26T21:08:13.682Z,73.90
2019-04-26T21:10:42.866Z,75.10
2019-04-26T21:13:12.266Z,75.20
2019-04-26T21:15:53.418Z,75.10
2019-04-26T21:18:12.582Z,74.30
2019-04-26T21:20:42.548Z,75.20
2019-04-26T21:23:13.240Z,74.20
2019-04-26T21:25:52.428Z,73.80
2019-04-26T21:28:30.017Z,74.50
2019-04-26T21:31:08.687Z,75.40
2019-04-26T21:33:42.863Z,75.80
2019-04-26T21:36:41.204Z,74.90
2019-04-26T21:39:22.293Z,75.00
2019-04-26T21:41:53.200Z,75.80
2019-04-26T21:44:22.687Z,75.20
2019-04-26T21:46:56.215Z,75.20
2019-04-26T21:49:24.402Z,75.50
2019-04-26T21:51:54.269Z,75.20
2019-04-26T21:54:25.148Z,75.50
2019-04-26T21:56:54.487Z,75.70
2019-04-26T21:59:26.011Z,75.30
2019-04-26T22:01:58.968Z,75.40
2019-04-26T22:04:33.344Z,75.70
2019-04-26T22:07:03.981Z,74.60
2019-04-26T22:09:55.347Z,75.90
2019-04-26T22:12:27.240Z,76.20
2019-04-26T22:15:14.462Z,76.80
2019-04-26T22:17:46.155Z,77.10
2019-04-26T22:20:35.281Z,77.60
2019-04-26T22:23:29.813Z,77.40
2019-04-26T22:26:00.145Z,77.70
2019-04-26T22:28:31.168Z,77.50
2019-04-26T22:31:06.892Z,77.50
2019-04-26T22:33:32.659Z,77.30
2019-04-26T22:36:03.984Z,77.20
2019-04-26T22:38:33.968Z,77.80
2019-04-26T22:41:03.421Z,77.80
2019-04-26T22:44:00.582Z,77.60
2019-04-26T22:46:51.478Z,78.50
2019-04-26T22:49:20.670Z,78.10
2019-04-26T22:51:49.782Z,77.60
2019-04-26T22:54:19.106Z,77.60
2019-04-26T22:56:48.277Z,77.50
2019-04-26T22:59:17.682Z,77.30
2019-04-26T23:01:48.650Z,77.40
2019-04-26T23:04:23.497Z,76.90
2019-04-26T23:06:48.798Z,76.80
2019-04-26T23:09:20.566Z,77.20
2019-04-26T23:11:54.422Z,76.60
2019-04-26T23:14:33.691Z,76.60
2019-04-26T23:17:27.122Z,77.10
2019-04-26T23:20:16.503Z,77.50
2019-04-26T23:22:45.727Z,78.00
2019-04-26T23:25:14.907Z,78.40
2019-04-26T23:27:44.190Z,78.90
2019-04-26T23:30:14.673Z,79.30
2019-04-26T23:32:43.850Z,79.80
2019-04-26T23:35:13.749Z,80.10
2019-04-26T23:37:43.265Z,80.20
2019-04-26T23:40:12.385Z,80.20
2019-04-26T23:42:41.549Z,80.30
2019-04-26T23:45:12.433Z,80.40
2019-04-26T23:47:41.573Z,80.20
2019-04-26T23:50:10.761Z,80.10
2019-04-26T23:52:39.937Z,80.10
2019-04-26T23:55:09.271Z,80.20
2019-04-26T23:57:38.539Z,80.20
